Time;durP1;ratioP1;P1;durP2;ratioP2;P2;SDS_P1;SDS_P2;PMS_P1;PMS_P2;Temp;Humidity;BMP_temperature;BMP_pressure;BME280_temperature;BME280_humidity;BME280_pressure;Samples;Min_cycle;Max_cycle;Signal;HPM_P1;HPM_P2
2023/01/14 00:08:19;;;;;;;12.20;2.60;;;3.80;99.60;;;;;;6271517;22;20039;-88
2023/01/14 00:11:13;;;;;;;17.95;2.90;;;3.90;1.00;;;;;;6267833;23;20119;-89
2023/01/14 00:14:03;;;;;;;;;;;3.90;99.90;;;;;;6236794;23;20070;-88
2023/01/14 00:17:03;;;;;;;10.70;2.97;;;3.90;1.00;;;;;;6238595;22;19926;-88
2023/01/14 00:19:50;;;;;;;15.25;2.70;;;3.90;1.00;;;;;;6236925;23;20024;-87
2023/01/14 00:22:37;;;;;;;12.15;2.58;;;4.00;1.00;;;;;;6236890;23;20028;-88
2023/01/14 00:25:25;;;;;;;8.77;2.90;;;4.00;99.90;;;;;;6235296;23;20020;-90
2023/01/14 00:28:12;;;;;;;14.40;3.03;;;4.00;99.90;;;;;;6234243;23;20051;-88
2023/01/14 00:31:23;;;;;;;14.00;3.10;;;3.90;99.90;;;;;;6234300;23;20020;-87
2023/01/14 00:34:11;;;;;;;14.10;2.92;;;3.90;99.90;;;;;;6255417;23;20035;-89
2023/01/14 00:36:59;;;;;;;10.77;2.58;;;3.80;99.90;;;;;;6234046;23;20020;-88
2023/01/14 00:39:46;;;;;;;17.10;2.97;;;3.90;1.00;;;;;;6234749;23;20028;-89
2023/01/14 00:42:33;;;;;;;17.10;3.08;;;3.90;99.90;;;;;;6255340;23;20098;-87
2023/01/14 00:45:21;;;;;;;10.55;2.67;;;3.80;1.00;;;;;;6233902;23;20368;-90
2023/01/14 00:48:10;;;;;;;16.98;3.17;;;3.80;1.00;;;;;;6229655;23;20024;-89
2023/01/14 00:51:12;;;;;;;11.70;2.80;;;3.70;99.90;;;;;;6226064;23;20089;-90
2023/01/14 00:54:02;;;;;;;12.40;3.35;;;3.70;99.90;;;;;;6226822;23;20024;-89
2023/01/14 00:56:49;;;;;;;11.82;2.90;;;3.60;15.00;;;;;;6227555;23;20024;-89
2023/01/14 00:59:40;;;;;;;8.15;3.13;;;3.70;99.90;;;;;;6249367;23;20031;-88
2023/01/14 01:02:28;;;;;;;14.50;2.97;;;3.70;99.90;;;;;;6226841;23;20096;-89
2023/01/14 01:05:15;;;;;;;11.15;2.42;;;3.70;99.90;;;;;;6228275;23;20085;-89
2023/01/14 01:08:07;;;;;;;11.07;2.80;;;3.80;99.90;;;;;;6228708;23;20307;-88
2023/01/14 01:11:06;;;;;;;14.10;2.97;;;3.80;99.90;;;;;;6209673;23;20028;-89
2023/01/14 01:13:55;;;;;;;14.18;2.95;;;3.80;1.00;;;;;;6248412;23;20032;-89
2023/01/14 01:16:43;;;;;;;12.45;3.10;;;3.80;1.00;;;;;;6249194;23;20100;-90
2023/01/14 01:19:33;;;;;;;15.18;3.03;;;3.80;1.00;;;;;;6247897;23;20074;-88
2023/01/14 01:22:25;;;;;;;12.00;2.67;;;3.80;99.90;;;;;;6247321;23;20052;-89
2023/01/14 01:25:13;;;;;;;11.70;3.30;;;3.80;99.90;;;;;;6249236;23;20035;-90
2023/01/14 01:28:00;;;;;;;10.77;3.15;;;3.90;1.00;;;;;;6248384;23;20024;-90
2023/01/14 01:30:50;;;;;;;15.68;3.17;;;3.80;1.00;;;;;;6248127;23;20032;-89
2023/01/14 01:33:42;;;;;;;;;;;3.70;1.00;;;;;;6249499;23;20020;-89
2023/01/14 01:36:34;;;;;;;15.63;2.95;;;3.80;1.00;;;;;;6251613;22;19923;-90
2023/01/14 01:39:23;;;;;;;12.70;2.80;;;3.80;1.00;;;;;;6248390;23;20113;-88
2023/01/14 01:42:15;;;;;;;16.95;3.30;;;3.80;1.00;;;;;;6227360;23;20439;-89
2023/01/14 01:45:15;;;;;;;12.15;2.25;;;3.80;1.00;;;;;;6250786;23;20018;-89
2023/01/14 01:48:13;;;;;;;9.45;2.25;;;3.70;1.00;;;;;;6227622;23;20177;-88
2023/01/14 01:51:20;;;;;;;16.20;2.97;;;3.70;16.10;;;;;;6227799;23;20076;-88
2023/01/14 01:54:09;;;;;;;10.48;2.67;;;3.60;48.20;;;;;;6227974;23;20028;-88
2023/01/14 01:56:58;;;;;;;16.13;3.90;;;3.60;99.90;;;;;;6228184;23;20016;-89
2023/01/14 01:59:58;;;;;;;11.65;2.75;;;3.60;99.90;;;;;;6226308;23;20103;-89
2023/01/14 02:02:49;;;;;;;12.55;2.97;;;3.60;36.70;;;;;;6250478;23;20066;-88
2023/01/14 02:05:42;;;;;;;15.07;3.30;;;3.70;1.00;;;;;;6250607;23;20301;-88
2023/01/14 02:13:09;;;;;;;13.98;3.17;;;3.60;99.90;;;;;;6191875;23;20095;-88
2023/01/14 02:16:18;;;;;;;10.00;2.47;;;3.50;99.90;;;;;;6252802;23;20051;-87
2023/01/14 02:19:23;;;;;;;11.82;2.75;;;3.60;14.70;;;;;;6252590;23;20083;-89
2023/01/14 02:22:53;;;;;;;9.13;2.40;;;3.60;1.00;;;;;;6251675;23;20087;-88
2023/01/14 02:25:48;;;;;;;12.23;2.35;;;3.50;1.00;;;;;;6239160;23;20020;-89
2023/01/14 02:29:03;;;;;;;13.02;2.85;;;3.40;1.00;;;;;;6252414;23;20039;-88
2023/01/14 02:32:29;;;;;;;10.35;2.40;;;3.40;1.00;;;;;;6234664;23;20032;-89
2023/01/14 02:36:19;;;;;;;11.00;3.15;;;3.30;1.00;;;;;;6229783;23;20115;-89
2023/01/14 02:39:35;;;;;;;10.00;2.50;;;3.20;1.00;;;;;;6216846;23;20025;-88
2023/01/14 02:45:48;;;;;;;18.45;3.22;;;3.10;99.90;;;;;;6268852;23;20024;-89
2023/01/14 02:48:40;;;;;;;26.05;3.53;;;3.10;99.90;;;;;;6246208;22;20079;-88
2023/01/14 02:51:28;;;;;;;16.23;3.50;;;3.10;99.90;;;;;;6266035;23;20028;-88
2023/01/14 02:54:20;;;;;;;14.68;2.92;;;3.10;99.90;;;;;;6262709;23;20055;-89
2023/01/14 02:57:17;;;;;;;10.18;3.10;;;3.10;99.90;;;;;;6263359;23;20058;-89
2023/01/14 03:00:23;;;;;;;16.98;3.50;;;3.10;99.90;;;;;;6241948;23;20024;-89
2023/01/14 03:03:37;;;;;;;13.90;2.50;;;3.00;1.00;;;;;;6257601;23;20024;-86
2023/01/14 03:10:35;;;;;;;12.25;2.80;;;3.20;97.90;;;;;;6252309;23;20077;-89
2023/01/14 03:14:01;;;;;;;8.85;2.38;;;3.20;15.50;;;;;;6233625;23;20023;-88
2023/01/14 03:16:58;;;;;;;9.02;2.47;;;3.20;99.90;;;;;;6249779;23;20361;-90
2023/01/14 03:20:17;;;;;;;9.55;2.47;;;3.10;99.90;;;;;;6247276;23;20035;-89
2023/01/14 03:23:19;;;;;;;13.02;2.72;;;3.10;1.00;;;;;;6245397;23;20035;-89
2023/01/14 03:26:09;;;;;;;11.23;2.42;;;3.10;99.90;;;;;;6225749;23;20024;-87
2023/01/14 03:29:07;;;;;;;6.70;2.20;;;3.10;44.90;;;;;;6247583;23;20032;-90
2023/01/14 03:32:41;;;;;;;11.90;2.85;;;3.10;67.90;;;;;;6246607;23;20025;-89
2023/01/14 03:35:38;;;;;;;7.00;2.05;;;3.10;1.00;;;;;;6245615;23;20024;-89
2023/01/14 03:38:33;;;;;;;8.98;1.98;;;3.10;1.00;;;;;;6224837;23;20020;-89
2023/01/14 03:45:18;;;;;;;14.82;2.83;;;3.10;1.00;;;;;;6246445;23;20028;-88
2023/01/14 03:48:09;;;;;;;7.93;1.70;;;3.20;99.90;;;;;;6246479;23;20072;-90
2023/01/14 03:51:23;;;;;;;9.63;2.20;;;3.10;99.90;;;;;;6248028;23;20024;-88
2023/01/14 03:54:28;;;;;;;5.38;1.77;;;3.10;99.90;;;;;;6245628;23;20024;-89
2023/01/14 03:57:39;;;;;;;13.63;2.20;;;3.30;1.00;;;;;;6227844;23;20083;-88
2023/01/14 04:00:33;;;;;;;8.88;2.30;;;3.20;99.90;;;;;;6247334;23;20071;-87
2023/01/14 04:03:43;;;;;;;15.35;2.20;;;3.30;99.90;;;;;;6123859;23;20025;-88
2023/01/14 04:06:30;;;;;;;11.27;2.25;;;3.30;9.00;;;;;;6155267;23;20127;-87
2023/01/14 04:09:20;;;;;;;12.93;3.53;;;3.40;1.00;;;;;;6154382;23;20183;-89
2023/01/14 04:12:10;;;;;;;15.85;4.22;;;3.40;99.90;;;;;;6155047;23;20379;-91
2023/01/14 04:18:07;;;;;;;9.07;2.45;;;3.40;99.90;;;;;;6156035;23;20027;-90
2023/01/14 04:20:58;;;;;;;8.10;2.15;;;3.40;12.90;;;;;;6160136;23;20101;-89
2023/01/14 04:23:46;;;;;;;8.55;2.20;;;3.50;1.00;;;;;;6158321;23;20025;-86
2023/01/14 04:26:33;;;;;;;9.95;2.08;;;3.50;99.90;;;;;;6158469;23;20381;-86
2023/01/14 04:29:28;;;;;;;15.10;2.97;;;3.50;99.90;;;;;;6228003;23;20035;-88
2023/01/14 04:32:18;;;;;;;9.07;2.50;;;3.60;99.90;;;;;;6249006;23;20024;-88
2023/01/14 04:35:06;;;;;;;6.15;2.28;;;3.60;99.90;;;;;;6205898;23;20024;-88
2023/01/14 04:37:55;;;;;;;13.40;2.45;;;3.50;99.90;;;;;;6225541;23;20020;-88
2023/01/14 04:40:42;;;;;;;10.48;2.63;;;3.50;83.30;;;;;;6226397;23;20021;-88
2023/01/14 04:43:30;;;;;;;13.73;2.72;;;3.50;37.40;;;;;;6248844;23;20098;-88
2023/01/14 04:46:19;;;;;;;5.43;1.92;;;3.40;5.80;;;;;;6248013;23;20048;-87
2023/01/14 04:49:06;;;;;;;9.10;2.38;;;3.40;1.00;;;;;;6224236;23;20024;-89
2023/01/14 04:51:56;;;;;;;13.25;2.20;;;3.30;1.00;;;;;;6225938;23;20055;-88
2023/01/14 04:54:45;;;;;;;13.70;3.00;;;3.30;1.00;;;;;;6226605;23;20355;-87
2023/01/14 04:57:33;;;;;;;11.27;2.67;;;3.30;16.40;;;;;;6231510;23;20024;-88
2023/01/14 05:00:21;;;;;;;10.40;2.13;;;3.30;1.00;;;;;;6252437;23;20024;-88
2023/01/14 05:03:18;;;;;;;8.38;2.97;;;3.30;1.00;;;;;;6247547;23;20031;-89
2023/01/14 05:06:27;;;;;;;10.73;2.47;;;3.30;1.00;;;;;;6243101;23;20028;-86
2023/01/14 05:09:14;;;;;;;11.27;2.65;;;3.30;1.00;;;;;;6227915;23;20051;-86
2023/01/14 05:12:03;;;;;;;15.02;2.20;;;3.40;1.00;;;;;;6246039;23;20020;-89
2023/01/14 05:14:50;;;;;;;9.63;2.10;;;3.40;1.00;;;;;;6226073;23;20082;-88
2023/01/14 05:17:38;;;;;;;7.20;2.25;;;3.40;99.90;;;;;;6245769;23;20478;-87
2023/01/14 05:20:26;;;;;;;7.63;1.85;;;3.40;99.90;;;;;;6224842;23;20125;-88
2023/01/14 05:23:15;;;;;;;11.00;2.10;;;3.40;99.90;;;;;;6226586;23;20395;-88
2023/01/14 05:26:05;;;;;;;8.93;2.25;;;3.40;99.90;;;;;;6248103;23;20019;-87
2023/01/14 05:28:55;;;;;;;5.82;2.15;;;3.60;99.90;;;;;;6245741;23;20428;-89
2023/01/14 05:31:43;;;;;;;5.82;2.10;;;3.70;99.90;;;;;;6225315;23;20020;-88
2023/01/14 05:34:31;;;;;;;13.63;3.03;;;3.70;84.20;;;;;;6248095;23;20099;-88
2023/01/14 05:37:22;;;;;;;8.98;2.35;;;3.60;17.10;;;;;;6204323;23;20020;-88
2023/01/14 05:40:10;;;;;;;7.25;2.00;;;3.60;1.00;;;;;;6225305;23;20380;-87
2023/01/14 05:46:08;;;;;;;8.52;2.38;;;3.60;1.00;;;;;;6229204;23;20024;-88
2023/01/14 05:48:55;;;;;;;10.98;2.33;;;3.80;1.00;;;;;;6226105;23;20089;-89
2023/01/14 05:51:50;;;;;;;9.98;2.10;;;3.90;1.00;;;;;;6245035;23;20034;-87
2023/01/14 05:54:37;;;;;;;5.90;2.00;;;3.90;99.90;;;;;;6225338;23;20028;-89
2023/01/14 05:57:26;;;;;;;12.35;2.72;;;3.80;99.90;;;;;;6226354;23;20054;-88
2023/01/14 06:06:37;;;;;;;10.68;1.98;;;3.90;99.90;;;;;;6249082;23;20117;-89
2023/01/14 06:09:25;;;;;;;14.32;2.38;;;3.90;99.90;;;;;;6226330;23;20051;-88
2023/01/14 06:12:36;;;;;;;15.45;2.60;;;3.90;74.80;;;;;;6226605;23;20047;-87
2023/01/14 06:15:39;;;;;;;7.15;2.85;;;3.90;20.50;;;;;;6226651;23;20024;-86
2023/01/14 06:18:36;;;;;;;16.00;2.55;;;3.90;1.00;;;;;;6226313;23;20023;-86
2023/01/14 06:21:30;;;;;;;13.43;2.42;;;3.90;1.00;;;;;;6248086;23;20374;-86
2023/01/14 06:24:19;;;;;;;18.30;3.13;;;4.00;1.00;;;;;;6225596;23;20066;-88
2023/01/14 06:27:06;;;;;;;17.13;3.40;;;4.00;1.00;;;;;;6246980;23;20038;-88
2023/01/14 06:29:54;;;;;;;18.98;2.92;;;3.90;1.00;;;;;;6249737;23;20174;-87
2023/01/14 06:32:43;;;;;;;15.15;3.05;;;3.90;1.00;;;;;;6247695;23;20567;-87
2023/01/14 06:35:31;;;;;;;15.73;2.75;;;3.90;1.00;;;;;;6247874;23;20059;-87
2023/01/14 06:38:20;;;;;;;14.57;2.83;;;3.90;1.00;;;;;;6246895;23;20082;-87
2023/01/14 06:41:10;;;;;;;15.32;2.28;;;4.00;1.00;;;;;;6246576;23;20070;-88
2023/01/14 06:43:58;;;;;;;13.77;2.67;;;4.20;1.00;;;;;;6247013;23;20035;-89
2023/01/14 06:46:45;;;;;;;12.95;2.58;;;4.20;99.90;;;;;;6248133;23;20094;-89
2023/01/14 06:49:35;;;;;;;9.52;2.72;;;4.20;99.90;;;;;;6245483;23;20024;-89
2023/01/14 06:52:27;;;;;;;11.18;2.38;;;4.20;99.90;;;;;;6226202;23;20103;-89
2023/01/14 06:55:15;;;;;;;15.77;2.85;;;4.30;99.90;;;;;;6247900;23;20027;-88
2023/01/14 06:58:03;;;;;;;11.80;2.58;;;4.30;99.90;;;;;;6246263;23;20016;-90
2023/01/14 07:00:54;;;;;;;19.10;2.47;;;4.30;99.90;;;;;;6225562;23;20016;-88
2023/01/14 07:03:42;;;;;;;15.07;3.20;;;4.30;99.90;;;;;;6248220;23;20035;-87
2023/01/14 07:06:30;;;;;;;15.63;2.75;;;4.30;99.90;;;;;;6248850;23;20020;-89
2023/01/14 07:09:37;;;;;;;14.70;2.90;;;4.30;99.90;;;;;;6225932;23;20027;-86
2023/01/14 07:12:25;;;;;;;16.90;4.03;;;4.30;99.90;;;;;;6223012;23;20085;-85
2023/01/14 07:15:13;;;;;;;15.77;3.28;;;4.40;99.90;;;;;;6223483;23;20024;-85
2023/01/14 07:18:01;;;;;;;15.48;2.80;;;4.40;99.90;;;;;;6245962;23;20118;-85
2023/01/14 07:20:50;;;;;;;11.80;3.03;;;4.40;99.90;;;;;;6224822;23;20024;-85
2023/01/14 07:23:37;;;;;;;17.10;3.17;;;4.40;99.90;;;;;;6245150;23;20024;-85
2023/01/14 07:26:25;;;;;;;15.65;3.28;;;4.50;99.90;;;;;;6246932;23;20095;-87
2023/01/14 07:29:15;;;;;;;14.45;3.10;;;4.50;99.90;;;;;;6224631;23;20308;-86
2023/01/14 07:32:04;;;;;;;21.25;3.53;;;4.50;99.90;;;;;;6246490;23;20042;-85
2023/01/14 07:34:51;;;;;;;11.27;2.70;;;4.50;99.90;;;;;;6244271;23;20028;-85
2023/01/14 07:37:41;;;;;;;17.98;3.13;;;4.60;99.90;;;;;;6246082;23;20585;-87
2023/01/14 07:40:28;;;;;;;14.95;2.88;;;4.60;99.90;;;;;;6224848;23;20113;-88
2023/01/14 07:43:16;;;;;;;12.82;3.05;;;4.60;1.00;;;;;;6248527;22;20020;-88
2023/01/14 07:46:06;;;;;;;14.65;3.60;;;4.70;1.00;;;;;;6226281;23;20020;-86
2023/01/14 07:48:56;;;;;;;15.25;3.30;;;4.80;1.00;;;;;;6247443;23;20035;-86
2023/01/14 07:51:52;;;;;;;12.95;3.22;;;4.70;1.00;;;;;;6224475;23;20032;-88
2023/01/14 07:55:54;;;;;;;13.35;3.47;;;4.80;1.00;;;;;;6245798;23;20466;-87
2023/01/14 08:07:11;;;;;;;12.63;3.55;;;4.80;1.00;;;;;;6167979;23;20041;-86
2023/01/14 08:14:06;;;;;;;13.35;3.30;;;4.80;1.00;;;;;;6158503;23;20033;-86
2023/01/14 08:16:56;;;;;;;17.00;3.40;;;5.00;1.00;;;;;;6134803;23;20422;-87
2023/01/14 08:19:43;;;;;;;11.48;3.15;;;5.10;99.90;;;;;;6220017;23;20034;-85
2023/01/14 08:22:30;;;;;;;12.88;3.55;;;5.20;99.90;;;;;;6249068;23;20285;-85
2023/01/14 08:25:18;;;;;;;12.07;2.40;;;5.20;99.90;;;;;;6227186;23;20062;-88
2023/01/14 08:28:05;;;;;;;7.10;2.92;;;5.40;99.90;;;;;;6249257;23;20058;-86
2023/01/14 08:31:13;;;;;;;11.15;2.97;;;5.50;99.90;;;;;;6249727;23;20024;-86
2023/01/14 08:34:00;;;;;;;13.32;3.47;;;5.50;99.90;;;;;;6250455;23;20024;-87
2023/01/14 08:36:48;;;;;;;12.63;3.10;;;5.60;99.90;;;;;;6227593;23;20114;-87
2023/01/14 08:39:37;;;;;;;14.43;3.00;;;5.60;99.90;;;;;;6225991;23;20023;-87
2023/01/14 08:42:25;;;;;;;15.63;3.45;;;5.60;99.90;;;;;;6224750;23;20039;-88
2023/01/14 08:45:12;;;;;;;13.35;3.20;;;5.60;99.90;;;;;;6225949;23;20121;-84
2023/01/14 08:48:00;;;;;;;17.73;3.45;;;5.60;99.90;;;;;;6226939;23;20491;-86
2023/01/14 08:50:47;;;;;;;10.93;2.83;;;5.60;99.90;;;;;;6226072;23;20060;-86
2023/01/14 08:53:36;;;;;;;21.90;3.38;;;5.60;99.90;;;;;;6253523;23;20481;-86
2023/01/14 08:56:23;;;;;;;13.52;2.92;;;5.70;99.90;;;;;;6254774;23;20031;-86
2023/01/14 08:59:11;;;;;;;9.63;3.28;;;5.70;99.90;;;;;;6225364;23;20020;-86
2023/01/14 09:01:58;;;;;;;9.50;2.35;;;5.70;99.90;;;;;;6226066;23;20024;-85
2023/01/14 09:04:46;;;;;;;10.48;2.45;;;5.70;99.90;;;;;;6248368;23;20414;-86
2023/01/14 09:17:09;;;;;;;11.90;2.72;;;5.80;99.90;;;;;;6247337;23;20031;-88
2023/01/14 09:20:00;;;;;;;9.50;2.72;;;5.80;1.00;;;;;;6249227;23;20043;-88
2023/01/14 09:22:47;;;;;;;6.70;2.22;;;5.90;1.00;;;;;;6248226;23;20766;-86
2023/01/14 09:25:34;;;;;;;12.85;2.45;;;5.90;1.00;;;;;;6247529;23;20443;-88
2023/01/14 09:28:21;;;;;;;12.00;2.45;;;6.00;1.00;;;;;;6227612;23;20032;-86
2023/01/14 09:31:09;;;;;;;5.53;2.15;;;6.00;38.60;;;;;;6247651;23;20166;-85
2023/01/14 09:34:01;;;;;;;8.15;1.80;;;6.00;99.90;;;;;;6248233;23;20440;-86
2023/01/14 09:36:52;;;;;;;6.07;1.83;;;6.10;99.90;;;;;;6247231;23;20060;-86
2023/01/14 09:39:39;;;;;;;8.55;2.20;;;6.20;99.90;;;;;;6247715;23;20020;-85
2023/01/14 09:42:34;;;;;;;4.07;1.70;;;6.30;99.90;;;;;;6230003;23;20067;-86
2023/01/14 09:45:51;;;;;;;11.00;2.05;;;6.20;96.50;;;;;;6249915;23;20104;-88
2023/01/14 09:48:38;;;;;;;8.98;2.15;;;6.30;36.90;;;;;;6248811;23;20031;-85
2023/01/14 09:51:45;;;;;;;12.25;2.30;;;6.40;1.00;;;;;;6248015;23;20098;-87
2023/01/14 09:54:40;;;;;;;10.18;2.25;;;6.50;1.00;;;;;;6248358;23;20028;-86
2023/01/14 09:57:50;;;;;;;23.45;8.90;;;6.60;99.90;;;;;;6248967;23;20054;-86
2023/01/14 10:00:43;;;;;;;15.98;8.43;;;6.70;99.90;;;;;;6248581;23;20028;-86
2023/01/14 10:03:52;;;;;;;5.95;2.03;;;6.80;99.90;;;;;;6248407;23;20372;-87
2023/01/14 10:06:44;;;;;;;10.52;3.70;;;6.80;99.90;;;;;;6248031;23;20371;-86
2023/01/14 10:09:41;;;;;;;8.57;4.30;;;6.70;36.60;;;;;;6247128;23;20032;-86
2023/01/14 10:12:34;;;;;;;6.43;2.63;;;6.80;1.00;;;;;;6247116;23;20024;-85
2023/01/14 10:15:24;;;;;;;;;;;6.80;1.00;;;;;;6247689;23;20047;-85
2023/01/14 10:18:20;;;;;;;7.35;2.03;;;6.80;1.00;;;;;;6227337;23;20005;-86
2023/01/14 10:21:38;;;;;;;8.98;2.30;;;6.80;1.00;;;;;;6248183;23;20027;-88
2023/01/14 10:24:27;;;;;;;7.70;1.80;;;6.90;1.00;;;;;;6225253;23;20324;-89
2023/01/14 10:27:16;;;;;;;4.82;1.50;;;6.90;1.00;;;;;;6226896;23;20351;-87
2023/01/14 10:30:17;;;;;;;4.40;2.00;;;6.90;1.00;;;;;;6251383;23;20024;-86
2023/01/14 10:33:11;;;;;;;7.95;2.28;;;6.90;1.00;;;;;;6250152;23;20024;-85
2023/01/14 10:36:06;;;;;;;4.18;1.65;;;6.90;1.00;;;;;;6248945;23;20427;-89
2023/01/14 10:38:53;;;;;;;7.57;2.50;;;6.90;1.00;;;;;;6227630;23;20028;-86
2023/01/14 10:41:49;;;;;;;5.40;1.73;;;7.00;1.00;;;;;;6226515;23;20035;-85
2023/01/14 10:44:43;;;;;;;6.35;2.08;;;7.00;1.00;;;;;;6226685;23;20066;-86
2023/01/14 10:47:32;;;;;;;6.70;1.80;;;7.00;1.00;;;;;;6248207;23;20020;-88
2023/01/14 10:50:23;;;;;;;6.15;2.00;;;7.10;1.00;;;;;;6250043;23;20412;-86
2023/01/14 10:53:19;;;;;;;6.28;1.70;;;7.10;1.00;;;;;;6250046;23;20020;-85
2023/01/14 10:56:09;;;;;;;3.85;1.60;;;7.10;1.00;;;;;;6230089;23;20024;-89
2023/01/14 10:58:57;;;;;;;5.43;1.45;;;7.20;1.00;;;;;;6232435;23;20030;-86
2023/01/14 11:01:45;;;;;;;5.88;1.83;;;7.20;1.00;;;;;;6229334;23;20035;-86
2023/01/14 11:04:35;;;;;;;3.95;1.83;;;7.30;1.00;;;;;;6252575;23;20020;-87
2023/01/14 11:07:27;;;;;;;4.10;1.95;;;7.20;1.00;;;;;;6249685;23;20020;-86
2023/01/14 11:10:19;;;;;;;6.13;1.80;;;7.30;1.00;;;;;;6249529;23;20328;-87
2023/01/14 11:13:26;;;;;;;4.22;1.52;;;7.30;1.00;;;;;;6249774;23;20039;-89
2023/01/14 11:16:28;;;;;;;3.78;1.50;;;7.30;1.00;;;;;;6230725;23;20028;-87
2023/01/14 11:19:15;;;;;;;4.97;1.63;;;7.30;1.00;;;;;;6240347;23;20019;-86
2023/01/14 11:22:05;;;;;;;3.70;1.60;;;7.40;1.00;;;;;;6249818;23;20035;-89
2023/01/14 11:25:24;;;;;;;9.25;1.90;;;7.40;1.00;;;;;;6229537;23;20020;-88
2023/01/14 11:28:14;;;;;;;4.57;1.98;;;7.40;1.00;;;;;;6224802;23;20031;-88
2023/01/14 11:31:05;;;;;;;5.50;1.52;;;7.40;1.00;;;;;;6247990;23;20028;-86
2023/01/14 11:33:53;;;;;;;5.63;2.00;;;7.50;1.00;;;;;;6226143;23;20080;-90
2023/01/14 11:36:43;;;;;;;7.20;1.80;;;7.50;1.00;;;;;;6247244;23;20103;-86
2023/01/14 11:39:45;;;;;;;7.00;2.08;;;7.50;1.00;;;;;;6247266;23;20446;-88
2023/01/14 11:42:37;;;;;;;6.35;1.95;;;7.50;1.00;;;;;;6224924;23;20023;-86
2023/01/14 11:45:24;;;;;;;3.00;1.55;;;7.50;1.00;;;;;;6245395;23;20099;-88
2023/01/14 11:48:42;;;;;;;4.65;1.50;;;7.50;1.00;;;;;;6226286;23;20020;-87
2023/01/14 11:51:29;;;;;;;3.75;1.50;;;7.50;99.90;;;;;;6243149;23;20024;-85
2023/01/14 11:54:19;;;;;;;7.72;1.80;;;7.50;99.90;;;;;;6247431;23;20035;-88
2023/01/14 11:57:19;;;;;;;4.45;1.60;;;7.50;99.90;;;;;;6225290;23;20091;-85
2023/01/14 12:00:10;;;;;;;4.70;1.60;;;7.50;99.90;;;;;;6247900;23;20121;-85
2023/01/14 12:03:01;;;;;;;5.35;1.65;;;7.50;99.90;;;;;;6226756;23;20447;-86
2023/01/14 12:05:52;;;;;;;4.15;1.73;;;7.50;99.90;;;;;;6211020;23;20050;-86
2023/01/14 12:08:43;;;;;;;2.40;1.83;;;7.50;99.90;;;;;;6248920;23;20035;-84
2023/01/14 12:11:46;;;;;;;4.38;1.55;;;7.50;99.90;;;;;;6224027;23;20032;-86
2023/01/14 12:17:55;;;;;;;3.05;1.42;;;7.50;99.90;;;;;;6246778;23;20035;-87
2023/01/14 12:20:43;;;;;;;5.10;1.60;;;7.50;99.90;;;;;;6225640;23;20020;-87
2023/01/14 12:23:42;;;;;;;3.78;1.40;;;7.50;99.90;;;;;;6248120;23;20086;-85
2023/01/14 12:26:38;;;;;;;7.70;1.85;;;7.50;99.90;;;;;;6247399;23;20094;-87
2023/01/14 12:29:36;;;;;;;12.02;2.08;;;7.40;99.90;;;;;;6247102;23;20324;-86
2023/01/14 12:32:27;;;;;;;5.47;1.77;;;7.50;99.90;;;;;;6247578;23;20375;-87
2023/01/14 12:35:17;;;;;;;6.20;1.70;;;7.50;99.90;;;;;;6248338;23;20336;-87
2023/01/14 12:47:54;;;;;;;2.15;1.55;;;7.50;99.90;;;;;;6248969;23;20415;-87
2023/01/14 12:50:53;;;;;;;4.95;1.65;;;7.50;99.90;;;;;;6228111;23;20070;-84
2023/01/14 12:54:23;;;;;;;3.17;1.77;;;7.50;99.90;;;;;;6258512;23;20335;-85
2023/01/14 12:57:21;;;;;;;6.50;1.83;;;7.50;99.90;;;;;;6228493;23;20378;-87
2023/01/14 13:00:26;;;;;;;5.32;2.17;;;7.60;99.90;;;;;;6227494;23;20336;-85
2023/01/14 13:03:35;;;;;;;6.00;1.80;;;7.50;99.90;;;;;;6250368;23;20051;-86
2023/01/14 13:06:44;;;;;;;7.90;2.40;;;7.60;99.90;;;;;;6228739;23;20026;-86
2023/01/14 13:09:45;;;;;;;6.10;1.60;;;7.60;99.90;;;;;;6227938;23;20035;-85
2023/01/14 13:12:33;;;;;;;4.25;1.67;;;7.70;99.90;;;;;;6249462;23;20035;-87
2023/01/14 13:15:34;;;;;;;5.10;1.98;;;7.70;99.90;;;;;;6248144;23;20024;-86
2023/01/14 13:19:05;;;;;;;6.88;2.30;;;7.70;99.90;;;;;;6249884;23;20089;-85
2023/01/14 13:22:40;;;;;;;6.68;1.95;;;7.80;99.90;;;;;;6226125;23;20038;-83
2023/01/14 13:25:43;;;;;;;4.65;1.90;;;7.90;99.90;;;;;;6226348;23;20138;-85
2023/01/14 13:29:08;;;;;;;5.32;2.05;;;7.90;99.90;;;;;;6227343;23;20448;-85
2023/01/14 13:32:01;;;;;;;4.78;2.20;;;8.10;99.90;;;;;;6249412;23;20089;-86
2023/01/14 13:35:01;;;;;;;6.88;2.63;;;8.10;90.30;;;;;;6254024;23;20102;-86
2023/01/14 13:38:15;;;;;;;5.47;2.20;;;8.20;66.40;;;;;;6228313;23;20511;-86
2023/01/14 13:41:12;;;;;;;3.58;2.05;;;8.20;51.50;;;;;;6234269;23;20031;-88
2023/01/14 13:44:01;;;;;;;5.20;2.08;;;8.20;20.50;;;;;;6241943;23;20031;-84
2023/01/14 13:47:05;;;;;;;5.75;1.60;;;8.20;14.60;;;;;;6237745;23;20028;-85
2023/01/14 13:50:27;;;;;;;5.10;1.80;;;8.10;12.10;;;;;;6260944;23;20024;-87
2023/01/14 13:53:17;;;;;;;5.10;1.90;;;8.10;5.90;;;;;;6262345;23;20024;-86
2023/01/14 13:56:05;;;;;;;11.80;2.70;;;8.10;4.00;;;;;;6239099;23;20028;-87
2023/01/14 13:59:06;;;;;;;5.07;2.13;;;8.10;4.80;;;;;;6260855;23;20072;-86
2023/01/14 14:01:53;;;;;;;4.85;1.85;;;8.00;4.90;;;;;;6267691;23;20039;-85
2023/01/14 14:05:25;;;;;;;4.32;2.28;;;8.00;10.10;;;;;;6244035;23;20043;-85
2023/01/14 14:08:31;;;;;;;4.22;1.70;;;8.10;8.30;;;;;;6254852;23;20020;-87
2023/01/14 14:11:26;;;;;;;7.32;1.90;;;8.00;9.10;;;;;;6234277;23;20404;-86
2023/01/14 14:14:33;;;;;;;4.20;1.88;;;8.10;1.00;;;;;;6233375;23;20020;-89
2023/01/14 14:17:37;;;;;;;4.28;2.40;;;8.10;1.00;;;;;;6252321;23;20338;-86
2023/01/14 14:20:34;;;;;;;4.63;2.08;;;8.10;1.00;;;;;;6250556;23;20020;-86
2023/01/14 14:23:30;;;;;;;5.20;2.30;;;8.20;1.00;;;;;;6229155;23;20020;-86
2023/01/14 14:26:24;;;;;;;4.20;2.42;;;8.20;1.00;;;;;;6228590;23;20091;-83
2023/01/14 14:29:14;;;;;;;7.20;3.00;;;8.20;1.00;;;;;;6257124;23;20083;-85
2023/01/14 14:32:17;;;;;;;10.38;3.42;;;8.10;1.00;;;;;;6251697;23;20048;-89
2023/01/14 14:35:15;;;;;;;7.93;3.10;;;7.90;25.30;;;;;;6249359;23;20024;-85
2023/01/14 14:38:04;;;;;;;11.18;5.75;;;7.80;73.50;;;;;;6247356;23;20023;-86
2023/01/14 14:40:53;;;;;;;3.20;1.60;;;7.80;94.20;;;;;;6247354;23;20070;-86
2023/01/14 14:43:42;;;;;;;4.10;1.58;;;7.90;65.10;;;;;;6248171;23;20614;-88
2023/01/14 14:46:30;;;;;;;4.35;2.05;;;8.10;1.00;;;;;;6247175;23;20047;-82
2023/01/14 14:49:28;;;;;;;3.17;1.60;;;8.00;1.00;;;;;;6246750;23;20028;-85
2023/01/14 14:52:19;;;;;;;2.95;1.70;;;8.00;1.00;;;;;;6204365;23;20042;-83
2023/01/14 14:55:10;;;;;;;3.85;1.63;;;8.10;1.00;;;;;;6226116;23;20044;-83
2023/01/14 14:57:59;;;;;;;4.95;1.20;;;8.00;1.00;;;;;;6247133;23;20086;-87
2023/01/14 15:01:05;;;;;;;2.20;1.30;;;8.00;1.00;;;;;;6224688;23;20047;-85
2023/01/14 15:03:53;;;;;;;7.40;1.67;;;7.90;1.00;;;;;;6246851;23;20055;-84
2023/01/14 15:06:41;;;;;;;1.52;1.15;;;8.00;1.00;;;;;;6224534;23;20063;-86
2023/01/14 15:09:30;;;;;;;2.63;1.30;;;8.30;1.00;;;;;;6226829;23;20355;-87
2023/01/14 15:12:19;;;;;;;4.50;1.30;;;8.40;99.90;;;;;;6247218;23;20431;-86
2023/01/14 15:15:24;;;;;;;1.45;1.20;;;8.40;99.90;;;;;;6247699;23;20291;-86
2023/01/14 15:18:32;;;;;;;3.92;1.80;;;8.50;99.90;;;;;;6255234;23;20094;-84
2023/01/14 15:21:29;;;;;;;2.17;1.73;;;8.40;99.90;;;;;;6248115;23;20024;-87
2023/01/14 15:24:22;;;;;;;1.55;1.45;;;8.40;99.90;;;;;;6225967;23;20078;-85
2023/01/14 15:27:16;;;;;;;4.95;1.60;;;8.40;99.90;;;;;;6248395;23;20095;-87
2023/01/14 15:30:26;;;;;;;2.88;1.30;;;8.40;99.90;;;;;;6248128;23;20038;-87
2023/01/14 15:33:36;;;;;;;6.90;1.40;;;8.50;99.90;;;;;;6226611;23;20028;-85
2023/01/14 15:36:27;;;;;;;1.95;1.35;;;8.20;99.90;;;;;;6248682;23;20032;-85
2023/01/14 15:39:18;;;;;;;2.90;1.20;;;8.10;99.90;;;;;;6226382;23;20016;-85
2023/01/14 15:42:06;;;;;;;2.92;2.00;;;7.90;99.90;;;;;;6246944;23;20074;-87
2023/01/14 15:44:58;;;;;;;2.97;2.20;;;7.80;99.90;;;;;;6204847;23;20432;-87
2023/01/14 15:48:01;;;;;;;4.03;1.33;;;7.90;99.90;;;;;;6229449;23;20035;-87
2023/01/14 15:51:00;;;;;;;2.50;1.50;;;7.80;99.90;;;;;;6247791;23;20066;-87
2023/01/14 15:54:36;;;;;;;3.22;1.58;;;7.50;99.90;;;;;;6248239;23;20086;-86
2023/01/14 15:57:25;;;;;;;2.08;1.63;;;7.30;1.00;;;;;;6247542;23;20040;-86
2023/01/14 16:00:21;;;;;;;3.75;2.10;;;6.90;1.00;;;;;;6248052;23;20020;-87
2023/01/14 16:03:27;;;;;;;4.28;1.60;;;6.80;1.00;;;;;;6248960;23;20044;-88
2023/01/14 16:06:41;;;;;;;2.30;1.38;;;6.70;17.90;;;;;;6258932;23;20020;-87
2023/01/14 16:09:34;;;;;;;5.95;1.92;;;6.70;87.50;;;;;;6225361;23;20039;-87
2023/01/14 16:12:21;;;;;;;;;;;6.70;99.90;;;;;;6224539;23;20565;-88
2023/01/14 16:15:19;;;;;;;4.60;2.33;;;6.60;99.90;;;;;;6227924;22;20019;-87
2023/01/14 16:18:21;;;;;;;9.57;5.50;;;6.50;99.90;;;;;;6246925;23;20032;-87
2023/01/14 16:21:10;;;;;;;12.07;6.47;;;6.40;99.90;;;;;;6248438;23;20048;-87
2023/01/14 16:23:57;;;;;;;5.07;2.60;;;6.40;99.90;;;;;;6249699;23;20399;-86
2023/01/14 16:26:44;;;;;;;4.38;3.03;;;6.30;99.90;;;;;;6225314;23;20086;-86
2023/01/14 16:29:35;;;;;;;5.97;3.10;;;6.40;99.90;;;;;;6248560;23;20059;-86
2023/01/14 16:32:22;;;;;;;4.75;2.75;;;6.40;99.90;;;;;;6228748;23;20032;-87
2023/01/14 16:35:10;;;;;;;6.45;3.40;;;6.40;99.90;;;;;;6228111;23;20324;-85